Flight Track Log - Related Links

Times and Time Zones

All times are in EDT time to prevent confusion due to time zone crossing. See the SCX8701 flight status page for this flight to view local times or setup timezone preferences in your user account.

Time Position Orientation Groundspeed Altitude Reporting Facility
EDT Latitude Longitude Course Direction KTS MPH feet Rate Location/Type
Mon 07:42:12 PM 27.9333 -82.7000 16° North 169 194 900  Level Tampa TRACON
Mon 07:43:18 PM 27.9833 -82.6833 16° North 207 238 2,400 1,850 Climbing Tampa TRACON
Mon 07:44:12 PM 28.0333 -82.6500 30° Northeast 247 284 4,600 1,895 Climbing Tampa TRACON
Mon 07:45:12 PM 28.1167 -82.6667 350° North 295 339 6,000 2,000 Climbing Tampa TRACON
Mon 07:46:12 PM 28.2000 -82.7000 341° North 294 338 8,600 2,141 Climbing Tampa TRACON
Mon 07:48:17 PM 28.3808 -82.7156 356° North 357 411 12,600 2,103 Climbing Miami Center
Mon 07:49:06 PM 28.4650 -82.7250 354° North 362 417 14,700 2,532 Climbing Jacksonville Center
Mon 07:50:06 PM 28.5756 -82.7367 355° North 377 434 17,200 2,250 Climbing Jacksonville Center
Mon 07:51:06 PM 28.6800 -82.7742 343° North 391 450 19,200 1,950 Climbing Jacksonville Center
Mon 07:52:06 PM 28.7719 -82.8453 326° Northwest 385 443 21,100 1,800 Climbing Jacksonville Center
Mon 07:53:06 PM 28.8636 -82.9258 322° Northwest 399 459 22,800 1,750 Climbing Jacksonville Center
Mon 07:54:06 PM 28.9639 -83.0064 325° Northwest 420 483 24,600 1,700 Climbing Jacksonville Center
Mon 07:55:06 PM 29.0597 -83.0922 322° Northwest 431 496 26,200 1,450 Climbing Jacksonville Center
Mon 07:56:06 PM 29.1578 -83.1781 323° Northwest 443 510 27,500 1,300 Climbing Jacksonville Center
Mon 07:57:06 PM 29.2492 -83.2806 316° Northwest 448 516 28,800 1,350 Climbing Jacksonville Center
Mon 07:58:06 PM 29.3408 -83.3808 316° Northwest 455 524 30,200 1,354 Climbing Jacksonville Center
Mon 08:03:36 PM 29.7974 -83.8849 315° West 423 487 37,600 1,191 Climbing FlightAware ADS-B (KONZ)
Mon 08:04:39 PM 29.9299 -84.0335 316° Northwest 419 482 38,000 186 Climbing FlightAware ADS-B (KONZ)
Mon 08:05:45 PM 30.0217 -84.1368 316° Northwest 421 484 38,000  Level FlightAware ADS-B (KONZ)
Mon 08:06:15 PM 30.0626 -84.1823 316° Northwest 421 484 38,000  Level FlightAware ADS-B (KONZ)
Mon 08:06:47 PM 30.1073 -84.2343 315° West 419 482 38,000  Level FlightAware ADS-B (KONZ)
Mon 08:07:51 PM 30.1771 -84.3128 316° Northwest 419 482 38,000  Level FlightAware ADS-B (KONZ)
Mon 08:08:06 PM 30.2170 -84.3584 315° West 419 482 38,000  Level FlightAware ADS-B
Mon 08:08:49 PM 30.2764 -84.4259 315° West 419 482 38,000  Level FlightAware ADS-B
Mon 08:09:27 PM 30.3173 -84.4713 315° West 418 481 38,000  Level FlightAware ADS-B (KONZ)
Mon 08:09:57 PM 30.3698 -84.5326 315° West 417 480 38,000  Level FlightAware ADS-B
Mon 08:10:30 PM 30.4146 -84.5829 315° West 417 480 38,000  Level FlightAware ADS-B
Mon 08:11:00 PM 30.4558 -84.6299 315° West 417 480 38,000 -188 Level FlightAware ADS-B
Mon 08:11:34 PM 30.5036 -84.6853 315° West 421 484 37,800 -696 Descending FlightAware ADS-B (KONZ)
Mon 08:12:09 PM 30.5514 -84.7394 315° West 425 489 37,200 -1,015 Descending FlightAware ADS-B (KONZ)
Mon 08:12:39 PM 30.5928 -84.7878 315° West 429 494 36,700 -930 Descending FlightAware ADS-B
Mon 08:13:20 PM 30.6506 -84.8527 315° West 427 491 36,100 -532 Descending FlightAware ADS-B
Mon 08:13:58 PM 30.7059 -84.9172 315° West 425 489 36,000 -88 Descending FlightAware ADS-B
Mon 08:14:28 PM 30.7475 -84.9656 315° West 425 489 36,000  Level FlightAware ADS-B
Mon 08:15:19 PM 30.8190 -85.0480 315° West 427 491 36,000  Level FlightAware ADS-B
Mon 08:16:07 PM 30.8845 -85.1244 315° West 430 495 36,000  Level FlightAware ADS-B
Mon 08:17:06 PM 30.9575 -85.2086 315° West 425 489 36,000  Level Jacksonville Center
Mon 08:18:06 PM 31.0411 -85.3075 315° West 425 489 36,000  Level Jacksonville Center
Mon 08:19:06 PM 31.1269 -85.4069 315° West 425 489 36,000  Level Jacksonville Center
Mon 08:21:47 PM 31.3619 -85.6875 314° West 430 495 36,000  Level Atlanta Center
Mon 08:22:49 PM 31.4369 -85.7717 316° Northwest 431 496 36,000  Level Memphis Center
Mon 08:23:47 PM 31.5303 -85.8856 314° West 430 495 36,000  Level Atlanta Center
Mon 08:24:47 PM 31.6064 -85.9750 315° West 430 495 36,000  Level Atlanta Center
Mon 08:25:47 PM 31.6922 -86.0744 315° West 430 495 36,000  Level Atlanta Center
Mon 08:26:47 PM 31.7761 -86.1764 314° West 430 495 36,000  Level Atlanta Center
Mon 08:27:47 PM 31.8619 -86.2786 315° West 435 501 36,000  Level Atlanta Center
Mon 08:28:47 PM 31.9478 -86.3836 314° West 435 501 36,000  Level Atlanta Center
Mon 08:29:47 PM 32.0397 -86.4867 316° Northwest 440 506 36,000  Level Atlanta Center
Mon 08:30:47 PM 32.1231 -86.5894 314° West 440 506 36,000  Level Atlanta Center
Mon 08:31:47 PM 32.2067 -86.6900 315° West 435 501 36,000 -150 Level Atlanta Center
Mon 08:32:47 PM 32.2858 -86.7856 314° West 428 493 35,700 -650 Descending Atlanta Center
Mon 08:33:47 PM 32.3711 -86.8892 314° West 428 493 34,700 -1,000 Descending Atlanta Center
Mon 08:34:47 PM 32.4544 -86.9903 314° West 428 493 33,700 -1,000 Descending Atlanta Center
Mon 08:35:47 PM 32.5353 -87.0914 313° West 433 498 32,700 -850 Descending Atlanta Center
Mon 08:36:47 PM 32.6183 -87.1931 314° West 433 498 32,000 -350 Descending Atlanta Center
Mon 08:37:47 PM 32.7036 -87.2922 316° Northwest 433 498 32,000  Level Atlanta Center
Mon 08:39:21 PM 32.8356 -87.4600 313° West 429 494 32,000  Level Memphis Center
Mon 08:40:23 PM 32.9194 -87.5625 314° West 429 494 32,000 -145 Level Memphis Center
Mon 08:41:25 PM 33.0028 -87.6653 314° West 430 495 31,700 -968 Descending Memphis Center
Mon 08:42:27 PM 33.0853 -87.7692 313° West 430 495 30,000 -823 Descending Memphis Center
Mon 08:43:29 PM 33.1686 -87.8728 314° West 431 496 30,000  Level Memphis Center
Mon 08:44:31 PM 33.2642 -87.9933 313° West 422 486 30,000  Level Memphis Center
Mon 08:45:33 PM 33.3458 -88.0950 314° West 421 484 30,000  Level Memphis Center
Mon 08:46:34 PM 33.4269 -88.1969 314° West 422 486 30,000  Level Memphis Center
Mon 08:47:36 PM 33.5006 -88.2892 314° West 422 486 30,000  Level Memphis Center
Mon 08:48:38 PM 33.5886 -88.4022 313° West 422 486 30,000  Level Memphis Center
Mon 08:49:40 PM 33.6689 -88.5042 313° West 422 486 30,000  Level Memphis Center
Mon 08:50:42 PM 33.7503 -88.6075 313° West 422 486 30,000  Level Memphis Center
Mon 08:51:43 PM 33.8308 -88.7117 313° West 422 486 30,000  Level Memphis Center
Mon 08:52:45 PM 33.9128 -88.8161 313° West 423 487 30,000  Level Memphis Center
Mon 08:53:47 PM 34.0047 -88.9356 313° West 424 488 30,000  Level Memphis Center
Mon 08:54:49 PM 34.0858 -89.0392 313° West 424 488 30,000  Level Memphis Center
Mon 08:55:50 PM 34.1669 -89.1444 313° West 425 489 30,000  Level Memphis Center
Mon 08:56:52 PM 34.2483 -89.2497 313° West 425 489 30,000  Level Memphis Center
Mon 08:57:54 PM 34.3447 -89.3756 313° West 425 489 30,000  Level Memphis Center
Mon 08:58:55 PM 34.4261 -89.4808 313° West 425 489 30,000  Level Memphis Center
Mon 08:59:57 PM 34.5061 -89.5869 312° West 426 490 30,000  Level Memphis Center
Mon 09:00:58 PM 34.5858 -89.6931 312° West 425 489 30,000  Level Memphis Center
Mon 09:02:00 PM 34.6672 -89.8006 313° West 426 490 30,000  Level Memphis Center
Mon 09:03:02 PM 34.7489 -89.9094 312° West 426 490 30,000  Level Memphis Center
Mon 09:04:03 PM 34.8308 -90.0169 313° West 426 490 30,000  Level Memphis Center
Mon 09:05:05 PM 34.9114 -90.1225 313° West 426 490 30,000  Level Memphis Center
Mon 09:06:06 PM 34.9900 -90.2281 312° West 423 487 30,000  Level Memphis Center
Mon 09:07:08 PM 35.0694 -90.3347 312° West 423 487 30,000  Level Memphis Center
Mon 09:08:10 PM 35.1494 -90.4417 312° West 423 487 30,000  Level Memphis Center
Mon 09:09:11 PM 35.2447 -90.5706 312° West 424 488 30,000  Level Memphis Center
Mon 09:10:13 PM 35.3231 -90.6772 312° West 423 487 30,000  Level Memphis Center
Mon 09:11:14 PM 35.4031 -90.7853 312° West 424 488 30,000  Level Memphis Center
Mon 09:12:16 PM 35.4819 -90.8922 312° West 424 488 30,000  Level Memphis Center
Mon 09:13:18 PM 35.5600 -91.0006 312° West 424 488 30,000  Level Memphis Center
Mon 09:14:19 PM 35.6392 -91.1075 312° West 424 488 30,000  Level Memphis Center
Mon 09:15:21 PM 35.7239 -91.2258 311° West 423 487 30,000  Level Memphis Center
Mon 09:16:22 PM 35.8047 -91.3336 313° West 423 487 30,000  Level Memphis Center
Mon 09:17:24 PM 35.8814 -91.4417 311° West 422 486 30,000  Level Memphis Center
Mon 09:18:25 PM 35.9583 -91.5481 312° West 418 481 30,000  Level Memphis Center
Mon 09:19:27 PM 36.0381 -91.6572 312° West 421 484 30,000 -435 Level Memphis Center
Mon 09:20:29 PM 36.1156 -91.7631 312° West 421 484 29,100 -1,024 Descending Memphis Center
Mon 09:21:30 PM 36.1975 -91.8814 311° West 398 458 27,900 -1,220 Descending Memphis Center
Mon 09:22:32 PM 36.2642 -91.9769 311° West 382 440 26,600 -1,500 Descending Memphis Center
Mon 09:23:34 PM 36.3297 -92.0714 311° West 373 429 24,800 -1,707 Descending Memphis Center
Mon 09:24:35 PM 36.3953 -92.1622 312° West 363 418 23,100 -1,610 Descending Memphis Center
Mon 09:25:37 PM 36.4575 -92.2506 311° West 351 404 21,500 -1,597 Descending Memphis Center
Mon 09:26:39 PM 36.5192 -92.3403 311° West 339 390 19,800 -1,610 Descending Memphis Center
Mon 09:27:40 PM 36.5786 -92.4239 312° West 331 381 18,200 -1,512 Descending Memphis Center
Mon 09:28:42 PM 36.6364 -92.5047 312° West 320 368 16,700 -1,597 Descending Memphis Center
Mon 09:29:44 PM 36.7022 -92.5997 311° West 308 354 14,900 -1,402 Descending Memphis Center
Mon 09:35:03 PM 36.9861 -93.0091 311° West 277 319 7,800 -1,379 Descending FlightAware ADS-B
Mon 09:36:07 PM 37.0325 -93.0932 297° West 271 312 6,100 -1,355 Descending FlightAware ADS-B
Mon 09:36:36 PM 37.0478 -93.1304 297° West 260 299 5,700 -900 Descending FlightAware ADS-B
Mon 09:37:07 PM 37.0648 -93.1710 297° West 234 269 5,200 -913 Descending FlightAware ADS-B
Mon 09:37:22 PM 37.0721 -93.1887 297° West 226 260 5,000 -545 Descending FlightAware ADS-B
Mon 09:37:51 PM 37.0854 -93.2216 297° West 201 231 4,800 -400 Descending FlightAware ADS-B
Mon 09:38:07 PM 37.0919 -93.2364 304° West 188 216 4,700 -400 Descending FlightAware ADS-B
Mon 09:38:21 PM 37.0987 -93.2463 319° Northwest 189 217 4,600 -828 Descending FlightAware ADS-B
Mon 09:38:36 PM 37.1113 -93.2588 322° Northwest 191 220 4,300 -1,019 Descending FlightAware ADS-B
Mon 09:39:14 PM 37.1378 -93.2850 322° Northwest 193 222 3,700 -857 Descending FlightAware ADS-B
Mon 09:40:00 PM 37.1658 -93.3119 322° Northwest 201 231 3,100 -710 Descending Memphis Center
Mon 09:40:47 PM 37.1881 -93.3336 322° Northwest 191 220 2,600 -842 Descending Kansas City Center
Mon 09:41:54 PM 37.2319 -93.3778 321° Northwest 160 184 1,500 -985 Descending Kansas City Center

Login

Don't have an account? Register now (free) for customized features, flight alerts, and more!